sensor_id;sensor_type;location;lat;lon;timestamp;temperature;humidity
17399;DHT22;8817;48.170;8.592;2022-12-20T00:01:24;7.80;55.80
17399;DHT22;8817;48.170;8.592;2022-12-20T00:03:52;7.70;55.80
17399;DHT22;8817;48.170;8.592;2022-12-20T00:06:20;7.80;56.40
17399;DHT22;8817;48.170;8.592;2022-12-20T00:08:52;7.80;55.90
17399;DHT22;8817;48.170;8.592;2022-12-20T00:11:19;7.80;55.90
17399;DHT22;8817;48.170;8.592;2022-12-20T00:13:47;7.80;55.90
17399;DHT22;8817;48.170;8.592;2022-12-20T00:16:16;7.80;55.90
17399;DHT22;8817;48.170;8.592;2022-12-20T00:18:43;7.80;55.90
17399;DHT22;8817;48.170;8.592;2022-12-20T00:21:12;7.80;56.40
17399;DHT22;8817;48.170;8.592;2022-12-20T00:23:40;7.70;55.80
17399;DHT22;8817;48.170;8.592;2022-12-20T00:26:09;7.70;55.90
17399;DHT22;8817;48.170;8.592;2022-12-20T00:28:38;7.70;56.40
17399;DHT22;8817;48.170;8.592;2022-12-20T00:31:07;7.80;56.00
17399;DHT22;8817;48.170;8.592;2022-12-20T00:33:35;7.70;55.90
17399;DHT22;8817;48.170;8.592;2022-12-20T00:36:03;7.70;55.90
17399;DHT22;8817;48.170;8.592;2022-12-20T00:38:30;7.80;56.00
17399;DHT22;8817;48.170;8.592;2022-12-20T00:41:00;7.80;56.00
17399;DHT22;8817;48.170;8.592;2022-12-20T00:43:27;7.70;55.90
17399;DHT22;8817;48.170;8.592;2022-12-20T00:45:54;7.80;56.00
17399;DHT22;8817;48.170;8.592;2022-12-20T00:48:23;7.80;56.00
17399;DHT22;8817;48.170;8.592;2022-12-20T00:50:50;7.80;55.90
17399;DHT22;8817;48.170;8.592;2022-12-20T00:53:17;7.80;55.90
17399;DHT22;8817;48.170;8.592;2022-12-20T00:55:45;7.80;55.90
17399;DHT22;8817;48.170;8.592;2022-12-20T00:58:13;7.80;55.90
17399;DHT22;8817;48.170;8.592;2022-12-20T01:00:40;7.80;55.90
17399;DHT22;8817;48.170;8.592;2022-12-20T01:03:07;7.70;55.80
17399;DHT22;8817;48.170;8.592;2022-12-20T01:05:36;7.80;55.90
17399;DHT22;8817;48.170;8.592;2022-12-20T01:08:04;7.70;55.90
17399;DHT22;8817;48.170;8.592;2022-12-20T01:10:32;7.70;55.90
17399;DHT22;8817;48.170;8.592;2022-12-20T01:12:59;7.70;56.00
17399;DHT22;8817;48.170;8.592;2022-12-20T01:15:26;7.80;56.10
17399;DHT22;8817;48.170;8.592;2022-12-20T01:17:53;7.80;56.20
17399;DHT22;8817;48.170;8.592;2022-12-20T01:20:20;7.80;56.20
17399;DHT22;8817;48.170;8.592;2022-12-20T01:22:48;7.80;56.20
17399;DHT22;8817;48.170;8.592;2022-12-20T01:25:15;7.80;56.30
17399;DHT22;8817;48.170;8.592;2022-12-20T01:27:42;7.90;56.30
17399;DHT22;8817;48.170;8.592;2022-12-20T01:30:10;7.90;56.30
17399;DHT22;8817;48.170;8.592;2022-12-20T01:32:37;7.80;56.20
17399;DHT22;8817;48.170;8.592;2022-12-20T01:35:04;7.90;56.30
17399;DHT22;8817;48.170;8.592;2022-12-20T01:37:31;8.00;56.30
17399;DHT22;8817;48.170;8.592;2022-12-20T01:39:59;8.00;56.30
17399;DHT22;8817;48.170;8.592;2022-12-20T01:42:26;8.00;56.30
17399;DHT22;8817;48.170;8.592;2022-12-20T01:44:56;8.00;56.20
17399;DHT22;8817;48.170;8.592;2022-12-20T01:47:26;8.10;56.30
17399;DHT22;8817;48.170;8.592;2022-12-20T01:49:56;8.10;56.20
17399;DHT22;8817;48.170;8.592;2022-12-20T01:52:28;8.10;56.20
17399;DHT22;8817;48.170;8.592;2022-12-20T01:55:03;8.10;56.20
17399;DHT22;8817;48.170;8.592;2022-12-20T01:57:35;8.10;56.10
17399;DHT22;8817;48.170;8.592;2022-12-20T02:00:06;8.10;56.00
17399;DHT22;8817;48.170;8.592;2022-12-20T02:02:34;8.10;56.00
17399;DHT22;8817;48.170;8.592;2022-12-20T02:05:02;8.10;56.00
17399;DHT22;8817;48.170;8.592;2022-12-20T02:07:31;8.10;56.00
17399;DHT22;8817;48.170;8.592;2022-12-20T02:10:02;8.00;56.00
17399;DHT22;8817;48.170;8.592;2022-12-20T02:12:35;8.00;56.00
17399;DHT22;8817;48.170;8.592;2022-12-20T02:15:29;8.00;56.00
17399;DHT22;8817;48.170;8.592;2022-12-20T02:18:15;8.00;56.00
17399;DHT22;8817;48.170;8.592;2022-12-20T02:21:10;8.00;56.00
17399;DHT22;8817;48.170;8.592;2022-12-20T02:27:17;7.90;56.00
17399;DHT22;8817;48.170;8.592;2022-12-20T02:30:10;7.90;56.10
17399;DHT22;8817;48.170;8.592;2022-12-20T02:32:42;7.90;56.00
17399;DHT22;8817;48.170;8.592;2022-12-20T02:35:13;7.90;56.00
17399;DHT22;8817;48.170;8.592;2022-12-20T02:37:48;7.90;56.00
17399;DHT22;8817;48.170;8.592;2022-12-20T02:40:17;7.90;56.00
17399;DHT22;8817;48.170;8.592;2022-12-20T02:42:45;7.90;56.00
17399;DHT22;8817;48.170;8.592;2022-12-20T02:45:15;8.00;56.10
17399;DHT22;8817;48.170;8.592;2022-12-20T02:47:48;7.90;56.00
17399;DHT22;8817;48.170;8.592;2022-12-20T02:50:22;7.90;56.10
17399;DHT22;8817;48.170;8.592;2022-12-20T02:52:50;7.90;56.10
17399;DHT22;8817;48.170;8.592;2022-12-20T02:55:18;8.00;56.20
17399;DHT22;8817;48.170;8.592;2022-12-20T02:57:52;8.00;56.20
17399;DHT22;8817;48.170;8.592;2022-12-20T03:00:23;7.90;56.20
17399;DHT22;8817;48.170;8.592;2022-12-20T03:02:51;8.00;56.20
17399;DHT22;8817;48.170;8.592;2022-12-20T03:05:38;8.00;56.20
17399;DHT22;8817;48.170;8.592;2022-12-20T03:08:09;8.00;56.20
17399;DHT22;8817;48.170;8.592;2022-12-20T03:10:37;8.00;56.20
17399;DHT22;8817;48.170;8.592;2022-12-20T03:13:03;8.00;56.20
17399;DHT22;8817;48.170;8.592;2022-12-20T03:15:32;8.00;56.80
17399;DHT22;8817;48.170;8.592;2022-12-20T03:17:59;8.00;56.20
17399;DHT22;8817;48.170;8.592;2022-12-20T03:20:26;8.00;56.20
17399;DHT22;8817;48.170;8.592;2022-12-20T03:22:53;8.10;56.80
17399;DHT22;8817;48.170;8.592;2022-12-20T03:25:20;8.00;56.20
17399;DHT22;8817;48.170;8.592;2022-12-20T03:27:47;8.10;56.20
17399;DHT22;8817;48.170;8.592;2022-12-20T03:30:14;8.00;56.20
17399;DHT22;8817;48.170;8.592;2022-12-20T03:32:42;8.10;56.20
17399;DHT22;8817;48.170;8.592;2022-12-20T03:35:09;8.00;56.20
17399;DHT22;8817;48.170;8.592;2022-12-20T03:37:36;8.00;56.20
17399;DHT22;8817;48.170;8.592;2022-12-20T03:40:04;8.00;56.20
17399;DHT22;8817;48.170;8.592;2022-12-20T03:42:31;8.10;56.20
17399;DHT22;8817;48.170;8.592;2022-12-20T03:44:58;8.10;56.20
17399;DHT22;8817;48.170;8.592;2022-12-20T03:47:25;8.00;56.20
17399;DHT22;8817;48.170;8.592;2022-12-20T03:49:53;8.00;56.20
17399;DHT22;8817;48.170;8.592;2022-12-20T03:52:20;8.10;56.30
17399;DHT22;8817;48.170;8.592;2022-12-20T03:54:47;8.10;56.20
17399;DHT22;8817;48.170;8.592;2022-12-20T03:57:14;8.10;56.30
17399;DHT22;8817;48.170;8.592;2022-12-20T03:59:40;8.10;56.20
17399;DHT22;8817;48.170;8.592;2022-12-20T04:02:08;8.10;56.30
17399;DHT22;8817;48.170;8.592;2022-12-20T04:04:35;8.10;56.30
17399;DHT22;8817;48.170;8.592;2022-12-20T04:07:03;8.10;56.30
17399;DHT22;8817;48.170;8.592;2022-12-20T04:09:30;8.10;56.30
17399;DHT22;8817;48.170;8.592;2022-12-20T04:11:57;8.10;56.30
17399;DHT22;8817;48.170;8.592;2022-12-20T04:14:24;8.10;56.30
17399;DHT22;8817;48.170;8.592;2022-12-20T04:16:51;8.10;56.30
17399;DHT22;8817;48.170;8.592;2022-12-20T04:19:18;8.10;56.30
17399;DHT22;8817;48.170;8.592;2022-12-20T04:21:45;8.20;56.40
17399;DHT22;8817;48.170;8.592;2022-12-20T04:24:13;8.20;56.40
17399;DHT22;8817;48.170;8.592;2022-12-20T04:26:40;8.20;56.40
17399;DHT22;8817;48.170;8.592;2022-12-20T04:29:07;8.20;56.40
17399;DHT22;8817;48.170;8.592;2022-12-20T04:31:34;8.20;56.40
17399;DHT22;8817;48.170;8.592;2022-12-20T04:34:00;8.20;56.40
17399;DHT22;8817;48.170;8.592;2022-12-20T04:36:27;8.10;56.30
17399;DHT22;8817;48.170;8.592;2022-12-20T04:38:54;8.20;56.40
17399;DHT22;8817;48.170;8.592;2022-12-20T04:41:22;8.20;56.40
17399;DHT22;8817;48.170;8.592;2022-12-20T04:43:53;8.20;56.40
17399;DHT22;8817;48.170;8.592;2022-12-20T04:46:21;8.20;56.40
17399;DHT22;8817;48.170;8.592;2022-12-20T04:48:48;8.20;56.40
17399;DHT22;8817;48.170;8.592;2022-12-20T04:51:15;8.30;56.40
17399;DHT22;8817;48.170;8.592;2022-12-20T04:53:42;8.20;56.40
17399;DHT22;8817;48.170;8.592;2022-12-20T04:56:15;8.20;56.40
17399;DHT22;8817;48.170;8.592;2022-12-20T04:58:44;8.20;56.40
17399;DHT22;8817;48.170;8.592;2022-12-20T05:01:11;8.30;56.50
17399;DHT22;8817;48.170;8.592;2022-12-20T05:03:38;8.30;56.50
17399;DHT22;8817;48.170;8.592;2022-12-20T05:06:06;8.30;56.50
17399;DHT22;8817;48.170;8.592;2022-12-20T05:08:33;8.30;56.50
17399;DHT22;8817;48.170;8.592;2022-12-20T05:11:00;8.30;56.40
17399;DHT22;8817;48.170;8.592;2022-12-20T05:13:27;8.40;56.50
17399;DHT22;8817;48.170;8.592;2022-12-20T05:15:57;8.30;56.40
17399;DHT22;8817;48.170;8.592;2022-12-20T05:18:25;8.30;56.40
17399;DHT22;8817;48.170;8.592;2022-12-20T05:20:54;8.30;56.40
17399;DHT22;8817;48.170;8.592;2022-12-20T05:23:36;8.40;56.50
17399;DHT22;8817;48.170;8.592;2022-12-20T05:26:28;8.40;56.40
17399;DHT22;8817;48.170;8.592;2022-12-20T05:28:56;8.40;56.50
17399;DHT22;8817;48.170;8.592;2022-12-20T05:31:24;8.40;56.50
17399;DHT22;8817;48.170;8.592;2022-12-20T05:33:51;8.40;56.50
17399;DHT22;8817;48.170;8.592;2022-12-20T05:36:18;8.40;57.00
17399;DHT22;8817;48.170;8.592;2022-12-20T05:38:45;8.40;56.40
17399;DHT22;8817;48.170;8.592;2022-12-20T05:41:12;8.40;56.40
17399;DHT22;8817;48.170;8.592;2022-12-20T05:43:40;8.30;56.40
17399;DHT22;8817;48.170;8.592;2022-12-20T05:46:09;8.40;56.50
17399;DHT22;8817;48.170;8.592;2022-12-20T05:48:38;8.40;56.50
17399;DHT22;8817;48.170;8.592;2022-12-20T05:51:05;8.40;56.50
17399;DHT22;8817;48.170;8.592;2022-12-20T05:53:32;8.40;56.50
17399;DHT22;8817;48.170;8.592;2022-12-20T05:55:59;8.40;56.50
17399;DHT22;8817;48.170;8.592;2022-12-20T05:58:27;8.40;56.40
17399;DHT22;8817;48.170;8.592;2022-12-20T06:00:54;8.40;56.50
17399;DHT22;8817;48.170;8.592;2022-12-20T06:03:21;8.40;56.50
17399;DHT22;8817;48.170;8.592;2022-12-20T06:05:50;8.40;56.40
17399;DHT22;8817;48.170;8.592;2022-12-20T06:08:17;8.40;56.40
17399;DHT22;8817;48.170;8.592;2022-12-20T06:10:43;8.40;56.40
17399;DHT22;8817;48.170;8.592;2022-12-20T06:13:11;8.40;56.40
17399;DHT22;8817;48.170;8.592;2022-12-20T06:15:38;8.50;56.40
17399;DHT22;8817;48.170;8.592;2022-12-20T06:18:05;8.40;56.40
17399;DHT22;8817;48.170;8.592;2022-12-20T06:20:32;8.40;56.40
17399;DHT22;8817;48.170;8.592;2022-12-20T06:23:01;8.40;56.50
17399;DHT22;8817;48.170;8.592;2022-12-20T06:25:29;8.50;56.50
17399;DHT22;8817;48.170;8.592;2022-12-20T06:27:56;8.50;56.50
17399;DHT22;8817;48.170;8.592;2022-12-20T06:30:23;8.40;56.50
17399;DHT22;8817;48.170;8.592;2022-12-20T06:32:50;8.50;56.50
17399;DHT22;8817;48.170;8.592;2022-12-20T06:35:17;8.50;56.50
17399;DHT22;8817;48.170;8.592;2022-12-20T06:37:44;8.50;56.50
17399;DHT22;8817;48.170;8.592;2022-12-20T06:40:13;8.50;56.50
17399;DHT22;8817;48.170;8.592;2022-12-20T06:42:40;8.50;56.50
17399;DHT22;8817;48.170;8.592;2022-12-20T06:45:08;8.50;56.50
17399;DHT22;8817;48.170;8.592;2022-12-20T06:47:35;8.50;56.50
17399;DHT22;8817;48.170;8.592;2022-12-20T06:50:02;8.50;56.50
17399;DHT22;8817;48.170;8.592;2022-12-20T06:52:29;8.50;56.50
17399;DHT22;8817;48.170;8.592;2022-12-20T06:54:56;8.50;56.50
17399;DHT22;8817;48.170;8.592;2022-12-20T06:57:24;8.50;56.50
17399;DHT22;8817;48.170;8.592;2022-12-20T06:59:51;8.50;56.50
17399;DHT22;8817;48.170;8.592;2022-12-20T07:02:18;8.50;56.50
17399;DHT22;8817;48.170;8.592;2022-12-20T07:04:45;8.50;56.50
17399;DHT22;8817;48.170;8.592;2022-12-20T07:07:12;8.50;56.50
17399;DHT22;8817;48.170;8.592;2022-12-20T07:09:39;8.50;56.50
17399;DHT22;8817;48.170;8.592;2022-12-20T07:12:07;8.50;56.50
17399;DHT22;8817;48.170;8.592;2022-12-20T07:14:36;8.50;56.50
17399;DHT22;8817;48.170;8.592;2022-12-20T07:17:03;8.50;56.50
17399;DHT22;8817;48.170;8.592;2022-12-20T07:19:30;8.50;56.50
17399;DHT22;8817;48.170;8.592;2022-12-20T07:21:57;8.60;56.60
17399;DHT22;8817;48.170;8.592;2022-12-20T07:24:24;8.50;56.50
17399;DHT22;8817;48.170;8.592;2022-12-20T07:26:51;8.50;56.50
17399;DHT22;8817;48.170;8.592;2022-12-20T07:29:18;8.50;56.50
17399;DHT22;8817;48.170;8.592;2022-12-20T07:31:46;8.50;56.50
17399;DHT22;8817;48.170;8.592;2022-12-20T07:34:13;8.50;56.50
17399;DHT22;8817;48.170;8.592;2022-12-20T07:36:40;8.50;56.60
17399;DHT22;8817;48.170;8.592;2022-12-20T07:39:07;8.50;56.50
17399;DHT22;8817;48.170;8.592;2022-12-20T07:41:34;8.60;56.60
17399;DHT22;8817;48.170;8.592;2022-12-20T07:44:01;8.60;56.70
17399;DHT22;8817;48.170;8.592;2022-12-20T07:46:27;8.60;56.60
17399;DHT22;8817;48.170;8.592;2022-12-20T07:48:56;8.60;56.60
17399;DHT22;8817;48.170;8.592;2022-12-20T07:51:25;8.60;56.60
17399;DHT22;8817;48.170;8.592;2022-12-20T07:53:56;8.60;56.60
17399;DHT22;8817;48.170;8.592;2022-12-20T07:56:25;8.60;56.60
17399;DHT22;8817;48.170;8.592;2022-12-20T07:58:55;8.60;56.70
17399;DHT22;8817;48.170;8.592;2022-12-20T08:01:25;8.60;56.70
17399;DHT22;8817;48.170;8.592;2022-12-20T08:03:54;8.60;56.60
17399;DHT22;8817;48.170;8.592;2022-12-20T08:06:24;8.60;56.60
17399;DHT22;8817;48.170;8.592;2022-12-20T08:08:57;8.60;56.60
17399;DHT22;8817;48.170;8.592;2022-12-20T08:11:25;8.60;56.60
17399;DHT22;8817;48.170;8.592;2022-12-20T08:13:53;8.70;56.70
17399;DHT22;8817;48.170;8.592;2022-12-20T08:16:20;8.70;56.70
17399;DHT22;8817;48.170;8.592;2022-12-20T08:18:47;8.70;56.70
17399;DHT22;8817;48.170;8.592;2022-12-20T08:21:14;8.70;56.60
17399;DHT22;8817;48.170;8.592;2022-12-20T08:23:42;8.70;56.60
17399;DHT22;8817;48.170;8.592;2022-12-20T08:26:09;8.70;56.60
17399;DHT22;8817;48.170;8.592;2022-12-20T08:28:36;8.70;56.60
17399;DHT22;8817;48.170;8.592;2022-12-20T08:31:04;8.70;56.60
17399;DHT22;8817;48.170;8.592;2022-12-20T08:33:32;8.70;56.60
17399;DHT22;8817;48.170;8.592;2022-12-20T08:36:01;8.70;56.60
17399;DHT22;8817;48.170;8.592;2022-12-20T08:38:29;8.70;56.60
17399;DHT22;8817;48.170;8.592;2022-12-20T08:41:02;8.70;56.60
17399;DHT22;8817;48.170;8.592;2022-12-20T08:43:29;8.70;56.60
17399;DHT22;8817;48.170;8.592;2022-12-20T08:45:56;8.80;56.70
17399;DHT22;8817;48.170;8.592;2022-12-20T08:48:24;8.80;56.70
17399;DHT22;8817;48.170;8.592;2022-12-20T08:50:54;8.80;56.70
17399;DHT22;8817;48.170;8.592;2022-12-20T08:53:22;8.80;56.80
17399;DHT22;8817;48.170;8.592;2022-12-20T08:55:49;8.80;56.80
17399;DHT22;8817;48.170;8.592;2022-12-20T08:58:17;8.80;56.80
17399;DHT22;8817;48.170;8.592;2022-12-20T09:00:44;8.80;56.90
17399;DHT22;8817;48.170;8.592;2022-12-20T09:03:11;8.90;56.90
17399;DHT22;8817;48.170;8.592;2022-12-20T09:05:43;8.90;56.90
17399;DHT22;8817;48.170;8.592;2022-12-20T09:08:11;8.90;56.90
17399;DHT22;8817;48.170;8.592;2022-12-20T09:10:38;9.00;57.00
17399;DHT22;8817;48.170;8.592;2022-12-20T09:13:05;9.00;57.00
17399;DHT22;8817;48.170;8.592;2022-12-20T09:15:34;9.00;56.90
17399;DHT22;8817;48.170;8.592;2022-12-20T09:18:01;9.00;56.90
17399;DHT22;8817;48.170;8.592;2022-12-20T09:20:28;9.10;57.00
17399;DHT22;8817;48.170;8.592;2022-12-20T09:22:57;9.10;56.90
17399;DHT22;8817;48.170;8.592;2022-12-20T09:25:24;9.10;56.90
17399;DHT22;8817;48.170;8.592;2022-12-20T09:27:51;9.10;56.90
17399;DHT22;8817;48.170;8.592;2022-12-20T09:30:19;9.20;57.00
17399;DHT22;8817;48.170;8.592;2022-12-20T09:32:48;9.20;57.00
17399;DHT22;8817;48.170;8.592;2022-12-20T09:35:15;9.20;57.00
17399;DHT22;8817;48.170;8.592;2022-12-20T09:37:41;9.20;57.00
17399;DHT22;8817;48.170;8.592;2022-12-20T09:40:16;9.30;57.00
17399;DHT22;8817;48.170;8.592;2022-12-20T09:42:43;9.30;57.00
17399;DHT22;8817;48.170;8.592;2022-12-20T09:45:18;9.30;57.00
17399;DHT22;8817;48.170;8.592;2022-12-20T09:47:47;9.30;57.00
17399;DHT22;8817;48.170;8.592;2022-12-20T09:50:15;9.40;57.10
17399;DHT22;8817;48.170;8.592;2022-12-20T09:52:56;9.40;57.10
17399;DHT22;8817;48.170;8.592;2022-12-20T09:55:30;9.40;57.00
17399;DHT22;8817;48.170;8.592;2022-12-20T09:58:16;9.40;57.00
17399;DHT22;8817;48.170;8.592;2022-12-20T10:00:47;9.40;57.00
17399;DHT22;8817;48.170;8.592;2022-12-20T10:03:20;9.50;57.00
17399;DHT22;8817;48.170;8.592;2022-12-20T10:05:50;9.50;57.00
17399;DHT22;8817;48.170;8.592;2022-12-20T10:08:25;9.50;57.00
17399;DHT22;8817;48.170;8.592;2022-12-20T10:10:56;9.60;57.10
17399;DHT22;8817;48.170;8.592;2022-12-20T10:13:36;9.60;57.20
17399;DHT22;8817;48.170;8.592;2022-12-20T10:16:13;9.60;57.00
17399;DHT22;8817;48.170;8.592;2022-12-20T10:18:55;9.60;57.00
17399;DHT22;8817;48.170;8.592;2022-12-20T10:21:31;9.60;57.00
17399;DHT22;8817;48.170;8.592;2022-12-20T10:24:04;9.60;57.00
17399;DHT22;8817;48.170;8.592;2022-12-20T10:26:35;9.70;57.00
17399;DHT22;8817;48.170;8.592;2022-12-20T10:29:02;9.70;57.10
17399;DHT22;8817;48.170;8.592;2022-12-20T10:31:29;9.70;57.00
17399;DHT22;8817;48.170;8.592;2022-12-20T10:33:57;9.80;57.10
17399;DHT22;8817;48.170;8.592;2022-12-20T10:36:26;9.80;57.10
17399;DHT22;8817;48.170;8.592;2022-12-20T10:38:54;9.80;57.10
17399;DHT22;8817;48.170;8.592;2022-12-20T10:41:23;9.80;57.00
17399;DHT22;8817;48.170;8.592;2022-12-20T10:43:54;9.80;57.00
17399;DHT22;8817;48.170;8.592;2022-12-20T10:46:22;9.80;57.00
17399;DHT22;8817;48.170;8.592;2022-12-20T10:48:49;9.90;57.10
17399;DHT22;8817;48.170;8.592;2022-12-20T10:51:19;9.90;57.00
17399;DHT22;8817;48.170;8.592;2022-12-20T10:53:53;9.90;57.00
17399;DHT22;8817;48.170;8.592;2022-12-20T10:56:22;9.90;57.00
17399;DHT22;8817;48.170;8.592;2022-12-20T10:58:57;9.90;56.90
17399;DHT22;8817;48.170;8.592;2022-12-20T11:01:27;9.90;56.90
17399;DHT22;8817;48.170;8.592;2022-12-20T11:03:57;9.90;56.90
17399;DHT22;8817;48.170;8.592;2022-12-20T11:06:29;9.90;57.00
17399;DHT22;8817;48.170;8.592;2022-12-20T11:09:25;9.90;57.00
17399;DHT22;8817;48.170;8.592;2022-12-20T11:12:00;9.90;57.00
17399;DHT22;8817;48.170;8.592;2022-12-20T11:14:28;9.90;57.00
17399;DHT22;8817;48.170;8.592;2022-12-20T11:16:56;9.90;56.90
17399;DHT22;8817;48.170;8.592;2022-12-20T11:19:58;9.90;57.00
17399;DHT22;8817;48.170;8.592;2022-12-20T11:22:38;9.90;57.00
17399;DHT22;8817;48.170;8.592;2022-12-20T11:25:23;9.90;56.90
17399;DHT22;8817;48.170;8.592;2022-12-20T11:28:13;9.90;56.90
17399;DHT22;8817;48.170;8.592;2022-12-20T11:30:50;10.00;57.00
17399;DHT22;8817;48.170;8.592;2022-12-20T11:33:33;10.00;57.00
17399;DHT22;8817;48.170;8.592;2022-12-20T11:36:07;10.00;57.00
17399;DHT22;8817;48.170;8.592;2022-12-20T11:38:40;10.00;57.10
17399;DHT22;8817;48.170;8.592;2022-12-20T11:41:15;10.00;57.10
17399;DHT22;8817;48.170;8.592;2022-12-20T11:43:55;10.10;57.20
17399;DHT22;8817;48.170;8.592;2022-12-20T11:46:36;10.00;57.20
17399;DHT22;8817;48.170;8.592;2022-12-20T11:49:22;10.10;57.30
17399;DHT22;8817;48.170;8.592;2022-12-20T11:52:02;10.20;57.30
17399;DHT22;8817;48.170;8.592;2022-12-20T11:54:34;10.20;57.30
17399;DHT22;8817;48.170;8.592;2022-12-20T11:57:05;10.20;57.20
17399;DHT22;8817;48.170;8.592;2022-12-20T11:59:40;10.30;57.80
17399;DHT22;8817;48.170;8.592;2022-12-20T12:02:11;10.30;57.20
17399;DHT22;8817;48.170;8.592;2022-12-20T12:04:42;10.30;57.20
17399;DHT22;8817;48.170;8.592;2022-12-20T12:07:14;10.30;57.20
17399;DHT22;8817;48.170;8.592;2022-12-20T12:09:48;10.30;57.10
17399;DHT22;8817;48.170;8.592;2022-12-20T12:12:21;10.40;57.10
17399;DHT22;8817;48.170;8.592;2022-12-20T12:14:55;10.30;57.00
17399;DHT22;8817;48.170;8.592;2022-12-20T12:17:30;10.40;57.10
17399;DHT22;8817;48.170;8.592;2022-12-20T12:20:13;10.40;57.00
17399;DHT22;8817;48.170;8.592;2022-12-20T12:22:45;10.40;57.10
17399;DHT22;8817;48.170;8.592;2022-12-20T12:25:16;10.40;57.00
17399;DHT22;8817;48.170;8.592;2022-12-20T12:27:44;10.40;57.10
17399;DHT22;8817;48.170;8.592;2022-12-20T12:30:13;10.40;57.10
17399;DHT22;8817;48.170;8.592;2022-12-20T12:32:43;10.40;57.10
17399;DHT22;8817;48.170;8.592;2022-12-20T12:35:23;10.40;57.10
17399;DHT22;8817;48.170;8.592;2022-12-20T12:38:03;10.50;57.20
17399;DHT22;8817;48.170;8.592;2022-12-20T12:40:53;10.50;57.20
17399;DHT22;8817;48.170;8.592;2022-12-20T12:43:51;10.50;57.20
17399;DHT22;8817;48.170;8.592;2022-12-20T12:46:23;10.50;57.20
17399;DHT22;8817;48.170;8.592;2022-12-20T12:48:55;10.60;57.60
17399;DHT22;8817;48.170;8.592;2022-12-20T12:51:27;10.60;57.90
17399;DHT22;8817;48.170;8.592;2022-12-20T12:54:03;10.70;58.30
17399;DHT22;8817;48.170;8.592;2022-12-20T12:56:44;10.80;58.60
17399;DHT22;8817;48.170;8.592;2022-12-20T12:59:26;11.00;58.60
17399;DHT22;8817;48.170;8.592;2022-12-20T13:02:33;11.10;58.40
17399;DHT22;8817;48.170;8.592;2022-12-20T13:05:34;11.30;58.00
17399;DHT22;8817;48.170;8.592;2022-12-20T13:08:02;11.30;57.70
17399;DHT22;8817;48.170;8.592;2022-12-20T13:10:55;11.50;57.60
17399;DHT22;8817;48.170;8.592;2022-12-20T13:13:22;11.40;57.40
17399;DHT22;8817;48.170;8.592;2022-12-20T13:16:08;11.50;57.30
17399;DHT22;8817;48.170;8.592;2022-12-20T13:18:35;11.40;57.20
17399;DHT22;8817;48.170;8.592;2022-12-20T13:21:31;11.50;57.20
17399;DHT22;8817;48.170;8.592;2022-12-20T13:27:27;11.40;57.40
17399;DHT22;8817;48.170;8.592;2022-12-20T13:29:58;11.50;57.90
17399;DHT22;8817;48.170;8.592;2022-12-20T13:35:59;11.60;57.80
17399;DHT22;8817;48.170;8.592;2022-12-20T13:38:49;11.60;57.60
17399;DHT22;8817;48.170;8.592;2022-12-20T13:41:30;11.70;57.50
17399;DHT22;8817;48.170;8.592;2022-12-20T13:44:00;11.70;57.40
17399;DHT22;8817;48.170;8.592;2022-12-20T13:46:42;11.70;57.50
17399;DHT22;8817;48.170;8.592;2022-12-20T13:49:17;11.70;57.40
17399;DHT22;8817;48.170;8.592;2022-12-20T13:51:48;11.80;57.30
17399;DHT22;8817;48.170;8.592;2022-12-20T13:54:17;11.80;57.30
17399;DHT22;8817;48.170;8.592;2022-12-20T13:56:47;11.80;57.20
17399;DHT22;8817;48.170;8.592;2022-12-20T13:59:17;11.80;57.10
17399;DHT22;8817;48.170;8.592;2022-12-20T14:01:47;11.80;57.10
17399;DHT22;8817;48.170;8.592;2022-12-20T14:04:16;11.80;57.10
17399;DHT22;8817;48.170;8.592;2022-12-20T14:06:43;11.80;57.00
17399;DHT22;8817;48.170;8.592;2022-12-20T14:09:30;11.80;57.50
17399;DHT22;8817;48.170;8.592;2022-12-20T14:12:03;11.70;56.90
17399;DHT22;8817;48.170;8.592;2022-12-20T14:14:36;11.70;57.00
17399;DHT22;8817;48.170;8.592;2022-12-20T14:17:16;11.70;57.00
17399;DHT22;8817;48.170;8.592;2022-12-20T14:19:43;11.70;57.00
17399;DHT22;8817;48.170;8.592;2022-12-20T14:22:11;11.70;56.90
17399;DHT22;8817;48.170;8.592;2022-12-20T14:24:40;11.70;56.90
17399;DHT22;8817;48.170;8.592;2022-12-20T14:27:11;11.70;57.00
17399;DHT22;8817;48.170;8.592;2022-12-20T14:29:39;11.70;57.00
17399;DHT22;8817;48.170;8.592;2022-12-20T14:32:16;11.70;57.70
17399;DHT22;8817;48.170;8.592;2022-12-20T14:34:44;11.70;57.10
17399;DHT22;8817;48.170;8.592;2022-12-20T14:37:26;11.70;57.00
17399;DHT22;8817;48.170;8.592;2022-12-20T14:39:58;11.70;57.00
17399;DHT22;8817;48.170;8.592;2022-12-20T14:42:28;11.70;56.90
17399;DHT22;8817;48.170;8.592;2022-12-20T14:45:14;11.70;57.00
17399;DHT22;8817;48.170;8.592;2022-12-20T14:47:48;11.70;56.90
17399;DHT22;8817;48.170;8.592;2022-12-20T14:50:17;11.70;56.90
17399;DHT22;8817;48.170;8.592;2022-12-20T14:52:45;11.70;56.90
17399;DHT22;8817;48.170;8.592;2022-12-20T14:55:17;11.70;56.80
17399;DHT22;8817;48.170;8.592;2022-12-20T14:57:47;11.70;56.80
17399;DHT22;8817;48.170;8.592;2022-12-20T15:00:21;11.70;56.80
17399;DHT22;8817;48.170;8.592;2022-12-20T15:02:58;11.70;56.70
17399;DHT22;8817;48.170;8.592;2022-12-20T15:05:36;11.60;56.70
17399;DHT22;8817;48.170;8.592;2022-12-20T15:08:13;11.60;56.70
17399;DHT22;8817;48.170;8.592;2022-12-20T15:10:48;11.60;56.70
17399;DHT22;8817;48.170;8.592;2022-12-20T15:13:17;11.60;56.70
17399;DHT22;8817;48.170;8.592;2022-12-20T15:15:44;11.50;56.60
17399;DHT22;8817;48.170;8.592;2022-12-20T15:18:12;11.50;56.60
17399;DHT22;8817;48.170;8.592;2022-12-20T15:20:40;11.50;56.60
17399;DHT22;8817;48.170;8.592;2022-12-20T15:23:12;11.50;56.50
17399;DHT22;8817;48.170;8.592;2022-12-20T15:25:42;11.40;56.50
17399;DHT22;8817;48.170;8.592;2022-12-20T15:28:14;11.40;56.50
17399;DHT22;8817;48.170;8.592;2022-12-20T15:30:41;11.40;56.40
17399;DHT22;8817;48.170;8.592;2022-12-20T15:33:16;11.40;56.40
17399;DHT22;8817;48.170;8.592;2022-12-20T15:35:44;11.30;56.30
17399;DHT22;8817;48.170;8.592;2022-12-20T15:38:14;11.30;56.30
17399;DHT22;8817;48.170;8.592;2022-12-20T15:40:44;11.30;56.30
17399;DHT22;8817;48.170;8.592;2022-12-20T15:43:12;11.20;56.30
17399;DHT22;8817;48.170;8.592;2022-12-20T15:45:41;11.10;56.20
17399;DHT22;8817;48.170;8.592;2022-12-20T15:48:15;11.10;56.30
17399;DHT22;8817;48.170;8.592;2022-12-20T15:50:49;11.10;56.20
17399;DHT22;8817;48.170;8.592;2022-12-20T15:53:19;11.00;56.20
17399;DHT22;8817;48.170;8.592;2022-12-20T15:55:51;11.00;56.20
17399;DHT22;8817;48.170;8.592;2022-12-20T15:58:18;11.00;56.20
17399;DHT22;8817;48.170;8.592;2022-12-20T16:00:45;10.90;56.20
17399;DHT22;8817;48.170;8.592;2022-12-20T16:03:14;10.90;56.20
17399;DHT22;8817;48.170;8.592;2022-12-20T16:05:42;10.90;56.20
17399;DHT22;8817;48.170;8.592;2022-12-20T16:08:09;10.80;56.20
17399;DHT22;8817;48.170;8.592;2022-12-20T16:10:36;10.80;56.20
17399;DHT22;8817;48.170;8.592;2022-12-20T16:13:04;10.80;56.20
17399;DHT22;8817;48.170;8.592;2022-12-20T16:15:33;10.80;56.20
17399;DHT22;8817;48.170;8.592;2022-12-20T16:18:00;10.70;56.20
17399;DHT22;8817;48.170;8.592;2022-12-20T16:20:27;10.70;56.20
17399;DHT22;8817;48.170;8.592;2022-12-20T16:22:54;10.70;56.20
17399;DHT22;8817;48.170;8.592;2022-12-20T16:25:27;10.70;56.20
17399;DHT22;8817;48.170;8.592;2022-12-20T16:27:55;10.60;56.20
17399;DHT22;8817;48.170;8.592;2022-12-20T16:30:24;10.60;56.20